sensor_id;sensor_type;location;lat;lon;timestamp;P1;durP1;ratioP1;P2;durP2;ratioP2
78555;SDS011;67851;51.354;7.744;2024-03-08T00:00:07;64.63;;;32.30;;
78555;SDS011;67851;51.354;7.744;2024-03-08T00:02:48;60.40;;;30.83;;
78555;SDS011;67851;51.354;7.744;2024-03-08T00:05:19;62.10;;;32.55;;
78555;SDS011;67851;51.354;7.744;2024-03-08T00:07:46;60.80;;;31.48;;
78555;SDS011;67851;51.354;7.744;2024-03-08T00:10:13;54.53;;;27.80;;
78555;SDS011;67851;51.354;7.744;2024-03-08T00:12:42;49.83;;;26.63;;
78555;SDS011;67851;51.354;7.744;2024-03-08T00:15:10;49.60;;;26.35;;
78555;SDS011;67851;51.354;7.744;2024-03-08T00:17:40;53.13;;;29.30;;
78555;SDS011;67851;51.354;7.744;2024-03-08T00:20:07;49.72;;;27.42;;
78555;SDS011;67851;51.354;7.744;2024-03-08T00:22:36;51.47;;;26.25;;
78555;SDS011;67851;51.354;7.744;2024-03-08T00:25:04;38.50;;;21.65;;
78555;SDS011;67851;51.354;7.744;2024-03-08T00:27:32;43.58;;;25.17;;
78555;SDS011;67851;51.354;7.744;2024-03-08T00:29:58;46.60;;;26.13;;
78555;SDS011;67851;51.354;7.744;2024-03-08T00:32:27;40.83;;;23.13;;
78555;SDS011;67851;51.354;7.744;2024-03-08T00:34:54;43.83;;;24.08;;
78555;SDS011;67851;51.354;7.744;2024-03-08T00:37:21;43.70;;;25.05;;
78555;SDS011;67851;51.354;7.744;2024-03-08T00:39:53;50.63;;;25.83;;
78555;SDS011;67851;51.354;7.744;2024-03-08T00:42:20;45.13;;;24.35;;
78555;SDS011;67851;51.354;7.744;2024-03-08T00:44:47;43.10;;;24.27;;
78555;SDS011;67851;51.354;7.744;2024-03-08T00:47:18;39.28;;;20.73;;
78555;SDS011;67851;51.354;7.744;2024-03-08T00:49:45;47.72;;;24.90;;
78555;SDS011;67851;51.354;7.744;2024-03-08T00:52:12;45.65;;;24.20;;
78555;SDS011;67851;51.354;7.744;2024-03-08T00:54:39;47.13;;;26.23;;
78555;SDS011;67851;51.354;7.744;2024-03-08T00:57:06;47.22;;;24.65;;
78555;SDS011;67851;51.354;7.744;2024-03-08T00:59:33;44.47;;;25.13;;
78555;SDS011;67851;51.354;7.744;2024-03-08T01:02:01;47.50;;;27.45;;
78555;SDS011;67851;51.354;7.744;2024-03-08T01:04:28;45.63;;;26.45;;
78555;SDS011;67851;51.354;7.744;2024-03-08T01:06:59;42.03;;;22.20;;
78555;SDS011;67851;51.354;7.744;2024-03-08T01:09:26;43.10;;;25.10;;
78555;SDS011;67851;51.354;7.744;2024-03-08T01:11:54;49.03;;;26.38;;
78555;SDS011;67851;51.354;7.744;2024-03-08T01:14:22;51.03;;;25.92;;
78555;SDS011;67851;51.354;7.744;2024-03-08T01:16:49;45.63;;;24.35;;
78555;SDS011;67851;51.354;7.744;2024-03-08T01:19:16;48.50;;;25.65;;
78555;SDS011;67851;51.354;7.744;2024-03-08T01:21:44;49.17;;;26.17;;
78555;SDS011;67851;51.354;7.744;2024-03-08T01:24:10;44.42;;;23.73;;
78555;SDS011;67851;51.354;7.744;2024-03-08T01:26:38;47.13;;;25.50;;
78555;SDS011;67851;51.354;7.744;2024-03-08T01:29:05;49.67;;;25.30;;
78555;SDS011;67851;51.354;7.744;2024-03-08T01:31:32;47.72;;;25.38;;
78555;SDS011;67851;51.354;7.744;2024-03-08T01:33:58;46.58;;;24.83;;
78555;SDS011;67851;51.354;7.744;2024-03-08T01:36:26;45.60;;;26.15;;
78555;SDS011;67851;51.354;7.744;2024-03-08T01:38:53;45.08;;;25.00;;
78555;SDS011;67851;51.354;7.744;2024-03-08T01:41:20;39.50;;;22.20;;
78555;SDS011;67851;51.354;7.744;2024-03-08T01:43:46;45.80;;;26.25;;
78555;SDS011;67851;51.354;7.744;2024-03-08T01:46:14;48.22;;;25.27;;
78555;SDS011;67851;51.354;7.744;2024-03-08T01:48:42;47.47;;;25.65;;
78555;SDS011;67851;51.354;7.744;2024-03-08T01:51:10;60.60;;;31.00;;
78555;SDS011;67851;51.354;7.744;2024-03-08T01:53:38;56.10;;;27.90;;
78555;SDS011;67851;51.354;7.744;2024-03-08T01:56:05;54.22;;;28.38;;
78555;SDS011;67851;51.354;7.744;2024-03-08T01:58:32;54.45;;;29.25;;
78555;SDS011;67851;51.354;7.744;2024-03-08T02:01:00;52.40;;;28.25;;
78555;SDS011;67851;51.354;7.744;2024-03-08T02:03:30;52.53;;;27.90;;
78555;SDS011;67851;51.354;7.744;2024-03-08T02:05:58;52.42;;;28.13;;
78555;SDS011;67851;51.354;7.744;2024-03-08T02:08:26;59.28;;;28.13;;
78555;SDS011;67851;51.354;7.744;2024-03-08T02:10:53;48.38;;;24.75;;
78555;SDS011;67851;51.354;7.744;2024-03-08T02:13:19;52.30;;;28.52;;
78555;SDS011;67851;51.354;7.744;2024-03-08T02:15:53;52.65;;;29.17;;
78555;SDS011;67851;51.354;7.744;2024-03-08T02:18:20;54.35;;;29.00;;
78555;SDS011;67851;51.354;7.744;2024-03-08T02:21:06;48.22;;;26.70;;
78555;SDS011;67851;51.354;7.744;2024-03-08T02:23:34;52.13;;;28.08;;
78555;SDS011;67851;51.354;7.744;2024-03-08T02:26:01;54.40;;;28.20;;
78555;SDS011;67851;51.354;7.744;2024-03-08T02:28:27;51.88;;;27.73;;
78555;SDS011;67851;51.354;7.744;2024-03-08T02:30:57;55.53;;;29.42;;
78555;SDS011;67851;51.354;7.744;2024-03-08T02:33:25;50.10;;;27.17;;
78555;SDS011;67851;51.354;7.744;2024-03-08T02:35:53;50.85;;;25.55;;
78555;SDS011;67851;51.354;7.744;2024-03-08T02:38:21;48.40;;;26.63;;
78555;SDS011;67851;51.354;7.744;2024-03-08T02:40:49;44.05;;;24.45;;
78555;SDS011;67851;51.354;7.744;2024-03-08T02:43:18;50.45;;;24.48;;
78555;SDS011;67851;51.354;7.744;2024-03-08T02:45:45;52.28;;;25.63;;
78555;SDS011;67851;51.354;7.744;2024-03-08T02:48:13;45.53;;;22.98;;
78555;SDS011;67851;51.354;7.744;2024-03-08T02:50:40;47.38;;;24.00;;
78555;SDS011;67851;51.354;7.744;2024-03-08T02:53:09;47.33;;;26.05;;
78555;SDS011;67851;51.354;7.744;2024-03-08T02:55:40;47.97;;;23.38;;
78555;SDS011;67851;51.354;7.744;2024-03-08T02:58:08;49.60;;;24.80;;
78555;SDS011;67851;51.354;7.744;2024-03-08T03:00:37;43.05;;;23.38;;
78555;SDS011;67851;51.354;7.744;2024-03-08T03:03:06;42.35;;;23.85;;
78555;SDS011;67851;51.354;7.744;2024-03-08T03:05:33;42.47;;;22.30;;
78555;SDS011;67851;51.354;7.744;2024-03-08T03:08:00;45.80;;;23.55;;
78555;SDS011;67851;51.354;7.744;2024-03-08T03:10:28;41.67;;;23.02;;
78555;SDS011;67851;51.354;7.744;2024-03-08T03:12:55;51.53;;;25.17;;
78555;SDS011;67851;51.354;7.744;2024-03-08T03:15:21;45.95;;;24.20;;
78555;SDS011;67851;51.354;7.744;2024-03-08T03:17:52;44.55;;;24.17;;
78555;SDS011;67851;51.354;7.744;2024-03-08T03:20:19;45.53;;;24.23;;
78555;SDS011;67851;51.354;7.744;2024-03-08T03:22:53;44.05;;;22.73;;
78555;SDS011;67851;51.354;7.744;2024-03-08T03:25:19;41.72;;;21.75;;
78555;SDS011;67851;51.354;7.744;2024-03-08T03:27:56;47.25;;;24.38;;
78555;SDS011;67851;51.354;7.744;2024-03-08T03:30:23;40.85;;;22.45;;
78555;SDS011;67851;51.354;7.744;2024-03-08T03:32:52;43.92;;;23.38;;
78555;SDS011;67851;51.354;7.744;2024-03-08T03:35:21;46.50;;;24.40;;
78555;SDS011;67851;51.354;7.744;2024-03-08T03:37:48;47.47;;;25.73;;
78555;SDS011;67851;51.354;7.744;2024-03-08T03:40:29;46.75;;;23.52;;
78555;SDS011;67851;51.354;7.744;2024-03-08T03:42:56;42.55;;;22.65;;
78555;SDS011;67851;51.354;7.744;2024-03-08T03:45:23;45.17;;;23.10;;
78555;SDS011;67851;51.354;7.744;2024-03-08T03:47:50;46.28;;;26.27;;
78555;SDS011;67851;51.354;7.744;2024-03-08T03:50:19;50.60;;;25.35;;
78555;SDS011;67851;51.354;7.744;2024-03-08T03:52:46;48.50;;;25.92;;
78555;SDS011;67851;51.354;7.744;2024-03-08T03:55:13;49.72;;;26.48;;
78555;SDS011;67851;51.354;7.744;2024-03-08T03:57:41;49.15;;;26.77;;
78555;SDS011;67851;51.354;7.744;2024-03-08T04:00:10;48.88;;;26.23;;
78555;SDS011;67851;51.354;7.744;2024-03-08T04:02:40;49.55;;;26.23;;
78555;SDS011;67851;51.354;7.744;2024-03-08T04:05:10;51.83;;;25.33;;
78555;SDS011;67851;51.354;7.744;2024-03-08T04:07:37;51.25;;;27.63;;
78555;SDS011;67851;51.354;7.744;2024-03-08T04:10:06;49.85;;;27.05;;
78555;SDS011;67851;51.354;7.744;2024-03-08T04:12:34;46.72;;;24.45;;
78555;SDS011;67851;51.354;7.744;2024-03-08T04:15:01;48.80;;;25.08;;
78555;SDS011;67851;51.354;7.744;2024-03-08T04:17:28;44.45;;;22.90;;
78555;SDS011;67851;51.354;7.744;2024-03-08T04:19:56;49.47;;;24.40;;
78555;SDS011;67851;51.354;7.744;2024-03-08T04:22:24;47.72;;;23.80;;
78555;SDS011;67851;51.354;7.744;2024-03-08T04:24:52;52.65;;;25.75;;
78555;SDS011;67851;51.354;7.744;2024-03-08T04:27:19;49.50;;;24.77;;
78555;SDS011;67851;51.354;7.744;2024-03-08T04:29:45;59.33;;;26.25;;
78555;SDS011;67851;51.354;7.744;2024-03-08T04:32:13;50.95;;;25.52;;
78555;SDS011;67851;51.354;7.744;2024-03-08T04:34:41;51.65;;;26.85;;
78555;SDS011;67851;51.354;7.744;2024-03-08T04:37:12;52.75;;;26.15;;
78555;SDS011;67851;51.354;7.744;2024-03-08T04:39:40;53.75;;;27.90;;
78555;SDS011;67851;51.354;7.744;2024-03-08T04:42:07;59.40;;;27.80;;
78555;SDS011;67851;51.354;7.744;2024-03-08T04:44:37;56.78;;;26.92;;
78555;SDS011;67851;51.354;7.744;2024-03-08T04:47:04;47.78;;;25.88;;
78555;SDS011;67851;51.354;7.744;2024-03-08T04:49:32;53.28;;;28.13;;
78555;SDS011;67851;51.354;7.744;2024-03-08T04:52:04;55.53;;;27.60;;
78555;SDS011;67851;51.354;7.744;2024-03-08T04:54:31;52.00;;;27.98;;
78555;SDS011;67851;51.354;7.744;2024-03-08T04:56:57;55.30;;;26.83;;
78555;SDS011;67851;51.354;7.744;2024-03-08T04:59:27;53.75;;;27.50;;
78555;SDS011;67851;51.354;7.744;2024-03-08T05:01:55;52.40;;;27.30;;
78555;SDS011;67851;51.354;7.744;2024-03-08T05:04:22;59.35;;;28.80;;
78555;SDS011;67851;51.354;7.744;2024-03-08T05:06:49;54.22;;;28.10;;
78555;SDS011;67851;51.354;7.744;2024-03-08T05:09:15;58.95;;;29.55;;
78555;SDS011;67851;51.354;7.744;2024-03-08T05:11:45;59.40;;;28.60;;
78555;SDS011;67851;51.354;7.744;2024-03-08T05:14:13;62.63;;;30.17;;
78555;SDS011;67851;51.354;7.744;2024-03-08T05:16:44;63.85;;;31.20;;
78555;SDS011;67851;51.354;7.744;2024-03-08T05:19:19;63.95;;;31.63;;
78555;SDS011;67851;51.354;7.744;2024-03-08T05:21:46;61.10;;;28.42;;
78555;SDS011;67851;51.354;7.744;2024-03-08T05:24:16;58.50;;;29.83;;
78555;SDS011;67851;51.354;7.744;2024-03-08T05:26:44;56.45;;;30.05;;
78555;SDS011;67851;51.354;7.744;2024-03-08T05:29:12;60.47;;;30.73;;
78555;SDS011;67851;51.354;7.744;2024-03-08T05:31:45;61.58;;;31.30;;
78555;SDS011;67851;51.354;7.744;2024-03-08T05:34:14;59.97;;;29.55;;
78555;SDS011;67851;51.354;7.744;2024-03-08T05:36:42;64.85;;;30.45;;
78555;SDS011;67851;51.354;7.744;2024-03-08T05:39:13;57.10;;;29.47;;
78555;SDS011;67851;51.354;7.744;2024-03-08T05:41:41;55.58;;;29.67;;
78555;SDS011;67851;51.354;7.744;2024-03-08T05:44:08;60.25;;;30.20;;
78555;SDS011;67851;51.354;7.744;2024-03-08T05:46:35;66.82;;;30.05;;
78555;SDS011;67851;51.354;7.744;2024-03-08T05:49:02;55.40;;;29.00;;
78555;SDS011;67851;51.354;7.744;2024-03-08T05:51:33;65.22;;;30.77;;
78555;SDS011;67851;51.354;7.744;2024-03-08T05:54:03;56.88;;;27.45;;
78555;SDS011;67851;51.354;7.744;2024-03-08T05:56:32;61.03;;;28.83;;
78555;SDS011;67851;51.354;7.744;2024-03-08T05:58:59;59.38;;;28.65;;
78555;SDS011;67851;51.354;7.744;2024-03-08T06:01:27;58.92;;;30.05;;
78555;SDS011;67851;51.354;7.744;2024-03-08T06:03:54;59.45;;;29.25;;
78555;SDS011;67851;51.354;7.744;2024-03-08T06:06:25;62.28;;;30.02;;
78555;SDS011;67851;51.354;7.744;2024-03-08T06:08:52;59.33;;;28.55;;
78555;SDS011;67851;51.354;7.744;2024-03-08T06:11:19;58.60;;;29.73;;
78555;SDS011;67851;51.354;7.744;2024-03-08T06:13:47;60.53;;;29.63;;
78555;SDS011;67851;51.354;7.744;2024-03-08T06:16:14;67.00;;;31.50;;
78555;SDS011;67851;51.354;7.744;2024-03-08T06:18:41;60.13;;;30.50;;
78555;SDS011;67851;51.354;7.744;2024-03-08T06:21:09;61.72;;;30.70;;
78555;SDS011;67851;51.354;7.744;2024-03-08T06:23:38;58.72;;;28.17;;
78555;SDS011;67851;51.354;7.744;2024-03-08T06:26:05;57.75;;;29.73;;
78555;SDS011;67851;51.354;7.744;2024-03-08T06:28:32;61.70;;;31.02;;
78555;SDS011;67851;51.354;7.744;2024-03-08T06:30:59;61.70;;;30.27;;
78555;SDS011;67851;51.354;7.744;2024-03-08T06:33:27;61.33;;;30.67;;
78555;SDS011;67851;51.354;7.744;2024-03-08T06:35:54;61.47;;;29.20;;
78555;SDS011;67851;51.354;7.744;2024-03-08T06:38:24;63.15;;;30.00;;
78555;SDS011;67851;51.354;7.744;2024-03-08T06:40:51;66.57;;;30.95;;
78555;SDS011;67851;51.354;7.744;2024-03-08T06:43:18;68.03;;;31.48;;
78555;SDS011;67851;51.354;7.744;2024-03-08T06:45:45;70.90;;;32.28;;
78555;SDS011;67851;51.354;7.744;2024-03-08T06:48:16;70.22;;;32.92;;
78555;SDS011;67851;51.354;7.744;2024-03-08T06:50:46;63.85;;;32.63;;
78555;SDS011;67851;51.354;7.744;2024-03-08T06:53:14;61.88;;;31.92;;
78555;SDS011;67851;51.354;7.744;2024-03-08T06:55:43;55.90;;;31.05;;
78555;SDS011;67851;51.354;7.744;2024-03-08T06:58:11;55.38;;;31.08;;
78555;SDS011;67851;51.354;7.744;2024-03-08T07:00:38;57.92;;;30.73;;
78555;SDS011;67851;51.354;7.744;2024-03-08T07:03:08;56.45;;;31.42;;
78555;SDS011;67851;51.354;7.744;2024-03-08T07:05:38;51.90;;;29.85;;
78555;SDS011;67851;51.354;7.744;2024-03-08T07:08:06;49.72;;;29.27;;
78555;SDS011;67851;51.354;7.744;2024-03-08T07:10:33;50.03;;;28.45;;
78555;SDS011;67851;51.354;7.744;2024-03-08T07:13:01;47.03;;;26.92;;
78555;SDS011;67851;51.354;7.744;2024-03-08T07:15:31;45.25;;;26.90;;
78555;SDS011;67851;51.354;7.744;2024-03-08T07:17:57;50.60;;;28.80;;
78555;SDS011;67851;51.354;7.744;2024-03-08T07:20:26;43.95;;;27.48;;
78555;SDS011;67851;51.354;7.744;2024-03-08T07:22:53;46.55;;;27.25;;
78555;SDS011;67851;51.354;7.744;2024-03-08T07:25:20;46.83;;;28.20;;
78555;SDS011;67851;51.354;7.744;2024-03-08T07:27:57;41.60;;;26.60;;
78555;SDS011;67851;51.354;7.744;2024-03-08T07:30:25;41.45;;;25.92;;
78555;SDS011;67851;51.354;7.744;2024-03-08T07:33:11;45.38;;;27.50;;
78555;SDS011;67851;51.354;7.744;2024-03-08T07:35:39;39.10;;;24.85;;
78555;SDS011;67851;51.354;7.744;2024-03-08T07:38:07;40.08;;;25.75;;
78555;SDS011;67851;51.354;7.744;2024-03-08T07:40:36;39.38;;;24.92;;
78555;SDS011;67851;51.354;7.744;2024-03-08T07:43:14;37.53;;;24.13;;
78555;SDS011;67851;51.354;7.744;2024-03-08T07:45:42;38.38;;;23.30;;
78555;SDS011;67851;51.354;7.744;2024-03-08T07:48:09;35.42;;;23.55;;
78555;SDS011;67851;51.354;7.744;2024-03-08T07:50:40;36.97;;;24.42;;
78555;SDS011;67851;51.354;7.744;2024-03-08T07:53:07;37.72;;;23.48;;
78555;SDS011;67851;51.354;7.744;2024-03-08T07:55:35;38.97;;;24.27;;
78555;SDS011;67851;51.354;7.744;2024-03-08T07:58:03;39.33;;;23.50;;
78555;SDS011;67851;51.354;7.744;2024-03-08T08:00:30;31.60;;;22.30;;
78555;SDS011;67851;51.354;7.744;2024-03-08T08:02:58;34.13;;;22.70;;
78555;SDS011;67851;51.354;7.744;2024-03-08T08:05:25;35.13;;;21.88;;
78555;SDS011;67851;51.354;7.744;2024-03-08T08:07:53;35.22;;;22.77;;
78555;SDS011;67851;51.354;7.744;2024-03-08T08:10:20;38.85;;;23.38;;
78555;SDS011;67851;51.354;7.744;2024-03-08T08:12:52;36.38;;;22.92;;
78555;SDS011;67851;51.354;7.744;2024-03-08T08:15:21;36.33;;;23.73;;
78555;SDS011;67851;51.354;7.744;2024-03-08T08:17:49;33.70;;;23.30;;
78555;SDS011;67851;51.354;7.744;2024-03-08T08:20:18;30.85;;;22.20;;
78555;SDS011;67851;51.354;7.744;2024-03-08T08:22:47;31.45;;;21.95;;
78555;SDS011;67851;51.354;7.744;2024-03-08T08:25:15;31.63;;;22.13;;
78555;SDS011;67851;51.354;7.744;2024-03-08T08:27:42;33.45;;;22.23;;
78555;SDS011;67851;51.354;7.744;2024-03-08T08:30:09;31.55;;;22.23;;
78555;SDS011;67851;51.354;7.744;2024-03-08T08:32:38;29.50;;;21.17;;
78555;SDS011;67851;51.354;7.744;2024-03-08T08:35:08;31.00;;;20.75;;
78555;SDS011;67851;51.354;7.744;2024-03-08T08:37:39;33.95;;;21.25;;
78555;SDS011;67851;51.354;7.744;2024-03-08T08:40:07;29.67;;;20.40;;
78555;SDS011;67851;51.354;7.744;2024-03-08T08:42:42;29.80;;;20.67;;
78555;SDS011;67851;51.354;7.744;2024-03-08T08:45:09;27.92;;;20.40;;
78555;SDS011;67851;51.354;7.744;2024-03-08T08:47:43;29.80;;;19.98;;
78555;SDS011;67851;51.354;7.744;2024-03-08T08:50:12;30.55;;;20.88;;
78555;SDS011;67851;51.354;7.744;2024-03-08T08:52:39;31.45;;;19.98;;
78555;SDS011;67851;51.354;7.744;2024-03-08T08:55:10;26.77;;;19.02;;
78555;SDS011;67851;51.354;7.744;2024-03-08T08:59:09;24.83;;;17.80;;
78555;SDS011;67851;51.354;7.744;2024-03-08T09:02:09;26.20;;;19.40;;
78555;SDS011;67851;51.354;7.744;2024-03-08T09:10:21;27.58;;;18.02;;
78555;SDS011;67851;51.354;7.744;2024-03-08T09:12:49;24.27;;;17.55;;
78555;SDS011;67851;51.354;7.744;2024-03-08T09:18:08;23.73;;;17.08;;
78555;SDS011;67851;51.354;7.744;2024-03-08T09:20:36;24.98;;;17.42;;
78555;SDS011;67851;51.354;7.744;2024-03-08T09:23:20;28.63;;;18.65;;
78555;SDS011;67851;51.354;7.744;2024-03-08T09:25:47;22.80;;;16.85;;
78555;SDS011;67851;51.354;7.744;2024-03-08T09:28:14;24.02;;;17.83;;
78555;SDS011;67851;51.354;7.744;2024-03-08T09:30:42;26.00;;;16.25;;
78555;SDS011;67851;51.354;7.744;2024-03-08T09:33:22;25.30;;;16.90;;
78555;SDS011;67851;51.354;7.744;2024-03-08T09:35:49;26.02;;;17.90;;
78555;SDS011;67851;51.354;7.744;2024-03-08T09:38:18;21.63;;;14.45;;
78555;SDS011;67851;51.354;7.744;2024-03-08T09:40:47;20.95;;;13.50;;
78555;SDS011;67851;51.354;7.744;2024-03-08T09:43:14;24.00;;;15.98;;
78555;SDS011;67851;51.354;7.744;2024-03-08T09:45:41;21.70;;;15.95;;
78555;SDS011;67851;51.354;7.744;2024-03-08T09:48:10;22.08;;;15.80;;
78555;SDS011;67851;51.354;7.744;2024-03-08T09:50:43;24.52;;;16.42;;
78555;SDS011;67851;51.354;7.744;2024-03-08T09:53:13;23.85;;;15.60;;
78555;SDS011;67851;51.354;7.744;2024-03-08T09:55:40;22.98;;;13.27;;
78555;SDS011;67851;51.354;7.744;2024-03-08T09:58:14;22.38;;;16.08;;
78555;SDS011;67851;51.354;7.744;2024-03-08T10:01:00;22.00;;;15.77;;
78555;SDS011;67851;51.354;7.744;2024-03-08T10:03:31;22.38;;;14.60;;
78555;SDS011;67851;51.354;7.744;2024-03-08T10:08:32;19.33;;;13.38;;
78555;SDS011;67851;51.354;7.744;2024-03-08T10:10:59;19.20;;;12.73;;
78555;SDS011;67851;51.354;7.744;2024-03-08T10:13:28;17.08;;;12.43;;
78555;SDS011;67851;51.354;7.744;2024-03-08T10:15:55;17.55;;;12.13;;
78555;SDS011;67851;51.354;7.744;2024-03-08T10:18:22;18.33;;;12.65;;
78555;SDS011;67851;51.354;7.744;2024-03-08T10:21:05;16.52;;;12.00;;
78555;SDS011;67851;51.354;7.744;2024-03-08T10:23:34;14.48;;;11.55;;
78555;SDS011;67851;51.354;7.744;2024-03-08T10:26:14;18.15;;;11.18;;
78555;SDS011;67851;51.354;7.744;2024-03-08T10:28:45;15.18;;;10.98;;
78555;SDS011;67851;51.354;7.744;2024-03-08T10:31:16;14.80;;;11.00;;
78555;SDS011;67851;51.354;7.744;2024-03-08T10:33:48;16.85;;;11.77;;
78555;SDS011;67851;51.354;7.744;2024-03-08T10:36:16;17.60;;;11.45;;
78555;SDS011;67851;51.354;7.744;2024-03-08T10:38:43;14.70;;;10.75;;
78555;SDS011;67851;51.354;7.744;2024-03-08T10:41:14;14.63;;;10.68;;
78555;SDS011;67851;51.354;7.744;2024-03-08T10:49:08;17.10;;;11.32;;
78555;SDS011;67851;51.354;7.744;2024-03-08T10:54:39;16.27;;;11.52;;
78555;SDS011;67851;51.354;7.744;2024-03-08T10:57:11;16.77;;;11.77;;
78555;SDS011;67851;51.354;7.744;2024-03-08T10:59:46;18.13;;;11.93;;
78555;SDS011;67851;51.354;7.744;2024-03-08T11:02:16;20.17;;;12.85;;
78555;SDS011;67851;51.354;7.744;2024-03-08T11:04:46;18.70;;;12.23;;
78555;SDS011;67851;51.354;7.744;2024-03-08T11:07:16;16.75;;;10.48;;
78555;SDS011;67851;51.354;7.744;2024-03-08T11:09:49;15.40;;;10.70;;
78555;SDS011;67851;51.354;7.744;2024-03-08T11:12:23;16.65;;;11.50;;
78555;SDS011;67851;51.354;7.744;2024-03-08T11:14:52;14.70;;;10.57;;
78555;SDS011;67851;51.354;7.744;2024-03-08T11:17:21;17.63;;;11.20;;
78555;SDS011;67851;51.354;7.744;2024-03-08T11:19:52;18.33;;;11.95;;
78555;SDS011;67851;51.354;7.744;2024-03-08T11:22:23;16.30;;;11.02;;
78555;SDS011;67851;51.354;7.744;2024-03-08T11:27:30;17.10;;;10.90;;
78555;SDS011;67851;51.354;7.744;2024-03-08T11:30:04;18.08;;;10.35;;
78555;SDS011;67851;51.354;7.744;2024-03-08T11:32:46;18.73;;;12.23;;
78555;SDS011;67851;51.354;7.744;2024-03-08T11:35:18;16.48;;;11.63;;
78555;SDS011;67851;51.354;7.744;2024-03-08T11:37:46;16.73;;;10.85;;
78555;SDS011;67851;51.354;7.744;2024-03-08T11:40:15;13.57;;;10.70;;
78555;SDS011;67851;51.354;7.744;2024-03-08T11:42:46;14.13;;;10.07;;
78555;SDS011;67851;51.354;7.744;2024-03-08T11:45:15;13.18;;;9.80;;
78555;SDS011;67851;51.354;7.744;2024-03-08T11:47:44;11.93;;;8.55;;
78555;SDS011;67851;51.354;7.744;2024-03-08T11:50:13;12.68;;;8.77;;
78555;SDS011;67851;51.354;7.744;2024-03-08T11:52:40;11.65;;;8.65;;
78555;SDS011;67851;51.354;7.744;2024-03-08T11:55:08;13.57;;;10.20;;
78555;SDS011;67851;51.354;7.744;2024-03-08T11:57:35;18.42;;;11.10;;
78555;SDS011;67851;51.354;7.744;2024-03-08T12:00:03;16.67;;;11.52;;
78555;SDS011;67851;51.354;7.744;2024-03-08T12:02:36;14.65;;;10.75;;
78555;SDS011;67851;51.354;7.744;2024-03-08T12:05:04;13.88;;;10.75;;
78555;SDS011;67851;51.354;7.744;2024-03-08T12:07:37;14.60;;;10.02;;
78555;SDS011;67851;51.354;7.744;2024-03-08T12:10:14;16.60;;;11.10;;
78555;SDS011;67851;51.354;7.744;2024-03-08T12:12:49;17.40;;;10.48;;
78555;SDS011;67851;51.354;7.744;2024-03-08T12:15:18;15.38;;;10.13;;
78555;SDS011;67851;51.354;7.744;2024-03-08T12:17:48;14.75;;;11.43;;
78555;SDS011;67851;51.354;7.744;2024-03-08T12:20:21;16.02;;;10.43;;
78555;SDS011;67851;51.354;7.744;2024-03-08T12:22:49;14.98;;;9.90;;
78555;SDS011;67851;51.354;7.744;2024-03-08T12:25:19;12.35;;;9.80;;
78555;SDS011;67851;51.354;7.744;2024-03-08T12:27:47;14.88;;;9.25;;
78555;SDS011;67851;51.354;7.744;2024-03-08T12:30:21;14.18;;;10.32;;
78555;SDS011;67851;51.354;7.744;2024-03-08T12:32:54;13.98;;;9.68;;
78555;SDS011;67851;51.354;7.744;2024-03-08T12:35:25;15.63;;;10.07;;
78555;SDS011;67851;51.354;7.744;2024-03-08T12:37:54;12.15;;;8.35;;
78555;SDS011;67851;51.354;7.744;2024-03-08T12:42:54;13.57;;;9.98;;
78555;SDS011;67851;51.354;7.744;2024-03-08T12:45:25;12.77;;;9.75;;
78555;SDS011;67851;51.354;7.744;2024-03-08T12:47:53;16.10;;;9.65;;
78555;SDS011;67851;51.354;7.744;2024-03-08T12:50:21;13.52;;;9.00;;
78555;SDS011;67851;51.354;7.744;2024-03-08T12:52:48;14.82;;;9.90;;
78555;SDS011;67851;51.354;7.744;2024-03-08T12:55:19;14.32;;;9.65;;
78555;SDS011;67851;51.354;7.744;2024-03-08T12:57:46;11.93;;;7.78;;
78555;SDS011;67851;51.354;7.744;2024-03-08T13:00:13;13.35;;;10.05;;
78555;SDS011;67851;51.354;7.744;2024-03-08T13:02:46;17.58;;;10.70;;
78555;SDS011;67851;51.354;7.744;2024-03-08T13:05:13;15.88;;;11.50;;
78555;SDS011;67851;51.354;7.744;2024-03-08T13:10:13;15.55;;;10.75;;
78555;SDS011;67851;51.354;7.744;2024-03-08T13:12:44;14.20;;;9.75;;
78555;SDS011;67851;51.354;7.744;2024-03-08T13:15:11;14.68;;;9.52;;
78555;SDS011;67851;51.354;7.744;2024-03-08T13:17:49;15.98;;;11.05;;
78555;SDS011;67851;51.354;7.744;2024-03-08T13:20:16;16.52;;;11.48;;
78555;SDS011;67851;51.354;7.744;2024-03-08T13:22:56;16.50;;;11.80;;
78555;SDS011;67851;51.354;7.744;2024-03-08T13:25:26;15.85;;;10.95;;
78555;SDS011;67851;51.354;7.744;2024-03-08T13:27:54;15.63;;;10.63;;
78555;SDS011;67851;51.354;7.744;2024-03-08T13:30:23;15.05;;;11.45;;
78555;SDS011;67851;51.354;7.744;2024-03-08T13:32:53;19.90;;;12.55;;
78555;SDS011;67851;51.354;7.744;2024-03-08T13:35:20;17.58;;;11.82;;
78555;SDS011;67851;51.354;7.744;2024-03-08T13:37:54;17.13;;;10.88;;
78555;SDS011;67851;51.354;7.744;2024-03-08T13:40:21;22.35;;;12.13;;
78555;SDS011;67851;51.354;7.744;2024-03-08T13:42:48;15.30;;;10.75;;
78555;SDS011;67851;51.354;7.744;2024-03-08T13:45:17;20.55;;;11.73;;
78555;SDS011;67851;51.354;7.744;2024-03-08T13:47:51;17.90;;;12.43;;
78555;SDS011;67851;51.354;7.744;2024-03-08T13:50:19;18.52;;;12.13;;
78555;SDS011;67851;51.354;7.744;2024-03-08T13:52:48;16.08;;;12.52;;
78555;SDS011;67851;51.354;7.744;2024-03-08T13:55:23;18.70;;;10.88;;
78555;SDS011;67851;51.354;7.744;2024-03-08T13:57:54;20.15;;;11.55;;
78555;SDS011;67851;51.354;7.744;2024-03-08T14:00:21;16.05;;;10.90;;
78555;SDS011;67851;51.354;7.744;2024-03-08T14:02:49;19.90;;;13.10;;
78555;SDS011;67851;51.354;7.744;2024-03-08T14:05:16;17.27;;;13.13;;
78555;SDS011;67851;51.354;7.744;2024-03-08T14:07:46;19.30;;;13.13;;
78555;SDS011;67851;51.354;7.744;2024-03-08T14:10:16;19.70;;;13.98;;
78555;SDS011;67851;51.354;7.744;2024-03-08T14:12:47;17.45;;;12.77;;
78555;SDS011;67851;51.354;7.744;2024-03-08T14:15:17;20.15;;;13.63;;
78555;SDS011;67851;51.354;7.744;2024-03-08T14:17:44;18.00;;;12.77;;
78555;SDS011;67851;51.354;7.744;2024-03-08T14:20:13;17.35;;;13.02;;
78555;SDS011;67851;51.354;7.744;2024-03-08T14:22:41;19.13;;;13.48;;
78555;SDS011;67851;51.354;7.744;2024-03-08T14:25:07;23.88;;;14.45;;
78555;SDS011;67851;51.354;7.744;2024-03-08T14:27:47;22.05;;;15.05;;
78555;SDS011;67851;51.354;7.744;2024-03-08T14:30:15;22.27;;;15.43;;
78555;SDS011;67851;51.354;7.744;2024-03-08T14:32:58;22.75;;;15.80;;
78555;SDS011;67851;51.354;7.744;2024-03-08T14:35:28;19.83;;;14.27;;
78555;SDS011;67851;51.354;7.744;2024-03-08T14:37:57;22.88;;;14.43;;
78555;SDS011;67851;51.354;7.744;2024-03-08T14:40:24;22.75;;;15.48;;
78555;SDS011;67851;51.354;7.744;2024-03-08T14:42:53;22.83;;;15.07;;
78555;SDS011;67851;51.354;7.744;2024-03-08T14:45:20;26.75;;;14.68;;
78555;SDS011;67851;51.354;7.744;2024-03-08T14:47:48;21.92;;;14.57;;
78555;SDS011;67851;51.354;7.744;2024-03-08T14:50:19;21.00;;;11.68;;
78555;SDS011;67851;51.354;7.744;2024-03-08T14:52:46;27.83;;;16.60;;
78555;SDS011;67851;51.354;7.744;2024-03-08T14:55:18;27.15;;;15.57;;
78555;SDS011;67851;51.354;7.744;2024-03-08T14:57:49;26.17;;;15.52;;
78555;SDS011;67851;51.354;7.744;2024-03-08T15:00:20;24.58;;;14.55;;